createdAt,value
2022-10-23T00:00:41.442Z,10.3
2022-10-23T00:01:45.500Z,10.4
2022-10-23T00:02:49.711Z,10.4
2022-10-23T00:03:54.177Z,10.4
2022-10-23T00:05:06.461Z,10.4
2022-10-23T00:06:10.573Z,10.4
2022-10-23T00:07:19.405Z,10.4
2022-10-23T00:08:24.773Z,10.5
2022-10-23T00:09:29.405Z,10.5
2022-10-23T00:10:33.894Z,10.4
2022-10-23T00:11:37.988Z,10.4
2022-10-23T00:12:42.444Z,10.4
2022-10-23T00:13:46.761Z,10.5
2022-10-23T00:14:50.894Z,10.5
2022-10-23T00:15:54.981Z,10.4
2022-10-23T00:16:59.073Z,10.5
2022-10-23T00:18:03.637Z,10.4
2022-10-23T00:19:07.856Z,10.3
2022-10-23T00:20:12.312Z,10.3
2022-10-23T00:21:16.453Z,10.4
2022-10-23T00:22:20.525Z,10.5
2022-10-23T00:23:24.984Z,10.6
2022-10-23T00:24:29.121Z,10.6
2022-10-23T00:25:33.125Z,10.5
2022-10-23T00:26:37.285Z,10.5
2022-10-23T00:27:41.621Z,10.6
2022-10-23T00:28:45.480Z,10.6
2022-10-23T00:29:49.805Z,10.6
2022-10-23T00:30:54.216Z,10.4
2022-10-23T00:31:58.304Z,10.4
2022-10-23T00:33:02.476Z,10.3
2022-10-23T00:34:06.616Z,10.4
2022-10-23T00:35:10.712Z,10.3
2022-10-23T00:36:14.884Z,10.4
2022-10-23T00:37:18.997Z,10.4
2022-10-23T00:38:23.204Z,10.4
2022-10-23T00:39:27.405Z,10.4
2022-10-23T00:40:32.005Z,10.4
2022-10-23T00:41:36.128Z,10.5
2022-10-23T00:42:40.231Z,10.4
2022-10-23T00:43:44.209Z,10.5
2022-10-23T00:44:59.157Z,10.5
2022-10-23T00:46:08.794Z,10.5
2022-10-23T00:47:13.045Z,10.5
2022-10-23T00:48:17.564Z,10.5
2022-10-23T00:49:21.627Z,10.5
2022-10-23T00:50:26.048Z,10.6
2022-10-23T00:51:30.085Z,10.6
2022-10-23T00:52:34.181Z,10.5
2022-10-23T00:53:38.329Z,10.4
2022-10-23T00:54:42.389Z,10.5
2022-10-23T00:55:46.497Z,10.4
2022-10-23T00:56:50.833Z,10.3
2022-10-23T00:57:55.349Z,10.3
2022-10-23T00:59:00.145Z,10.3
2022-10-23T01:00:04.720Z,10.3
2022-10-23T01:01:09.413Z,10.3
2022-10-23T01:02:16.452Z,10.4
2022-10-23T01:03:20.540Z,10.4
2022-10-23T01:04:24.741Z,10.3
2022-10-23T01:05:28.785Z,10.4
2022-10-23T01:06:32.856Z,10.4
2022-10-23T01:07:36.983Z,10.4
2022-10-23T01:08:46.236Z,10.4
2022-10-23T01:09:53.420Z,10.4
2022-10-23T01:11:00.612Z,10.4
2022-10-23T01:12:10.240Z,10.5
2022-10-23T01:13:19.557Z,10.4
2022-10-23T01:14:31.985Z,10.3
2022-10-23T01:15:46.784Z,10.4
2022-10-23T01:16:54.096Z,10.3
2022-10-23T01:18:01.189Z,10.3
2022-10-23T01:19:13.600Z,10.4
2022-10-23T01:20:23.218Z,10.4
2022-10-23T01:21:32.717Z,10.4
2022-10-23T01:22:47.484Z,10.3
2022-10-23T01:23:59.825Z,10.4
2022-10-23T01:25:09.160Z,10.5
2022-10-23T01:26:18.852Z,10.5
2022-10-23T01:27:23.056Z,10.4
2022-10-23T01:28:27.305Z,10.4
2022-10-23T01:29:31.975Z,10.4
2022-10-23T01:30:36.457Z,10.4
2022-10-23T01:31:40.552Z,10.5
2022-10-23T01:32:47.705Z,10.5
2022-10-23T01:33:54.889Z,10.4
2022-10-23T01:34:59.020Z,10.4
2022-10-23T01:36:08.700Z,10.5
2022-10-23T01:37:12.757Z,10.5
2022-10-23T01:38:17.228Z,10.5
2022-10-23T01:39:21.301Z,10.5
2022-10-23T01:40:25.360Z,10.4
2022-10-23T01:41:35.576Z,10.4
2022-10-23T01:42:39.819Z,10.4
2022-10-23T01:43:43.912Z,10.5
2022-10-23T01:44:54.053Z,10.4
2022-10-23T01:45:58.140Z,10.4
2022-10-23T01:47:02.188Z,10.4
2022-10-23T01:48:06.292Z,10.4
2022-10-23T01:49:10.529Z,10.5
2022-10-23T01:50:14.995Z,10.5
2022-10-23T01:51:19.027Z,10.5
2022-10-23T01:52:23.251Z,10.5
2022-10-23T01:53:27.576Z,10.6
2022-10-23T01:54:31.680Z,10.5
2022-10-23T01:55:35.822Z,10.5
2022-10-23T01:56:39.824Z,10.6
2022-10-23T01:57:44.287Z,10.6
2022-10-23T01:58:48.148Z,10.8
2022-10-23T01:59:52.756Z,10.7
2022-10-23T02:01:02.385Z,10.7
2022-10-23T02:02:06.710Z,10.8
2022-10-23T02:03:10.708Z,10.6
2022-10-23T02:04:14.905Z,10.7
2022-10-23T02:05:19.457Z,10.6
2022-10-23T02:06:23.856Z,10.5
2022-10-23T02:07:28.335Z,10.5
2022-10-23T02:08:32.364Z,10.5
2022-10-23T02:09:36.508Z,10.5
2022-10-23T02:10:40.636Z,10.6
2022-10-23T02:11:50.448Z,10.5
2022-10-23T02:12:54.912Z,10.5
2022-10-23T02:14:01.602Z,10.6
2022-10-23T02:15:08.772Z,10.7
2022-10-23T02:16:18.556Z,10.7
2022-10-23T02:17:32.980Z,10.6
2022-10-23T02:18:37.092Z,10.5
2022-10-23T02:19:44.337Z,10.4
2022-10-23T02:20:51.405Z,10.5
2022-10-23T02:21:55.512Z,10.5
2022-10-23T02:23:08.005Z,10.4
2022-10-23T02:24:17.516Z,10.5
2022-10-23T02:25:21.661Z,10.5
2022-10-23T02:26:28.479Z,10.6
2022-10-23T02:27:40.800Z,10.5
2022-10-23T02:28:44.900Z,10.6
2022-10-23T02:29:49.000Z,10.5
2022-10-23T02:30:53.164Z,10.5
2022-10-23T02:31:57.203Z,10.5
2022-10-23T02:33:01.404Z,10.4
2022-10-23T02:34:05.597Z,10.4
2022-10-23T02:35:10.098Z,10.5
2022-10-23T02:36:14.176Z,10.5
2022-10-23T02:37:18.761Z,10.5
2022-10-23T02:38:22.768Z,10.5
2022-10-23T02:39:32.780Z,10.4
2022-10-23T02:40:36.803Z,10.5
2022-10-23T02:41:41.000Z,10.5
2022-10-23T02:42:53.240Z,10.4
2022-10-23T02:44:02.949Z,10.5
2022-10-23T02:45:10.112Z,10.5
2022-10-23T02:46:19.392Z,10.5
2022-10-23T02:47:23.468Z,10.6
2022-10-23T02:48:33.052Z,10.6
2022-10-23T02:49:40.149Z,10.6
2022-10-23T02:50:54.908Z,10.7
2022-10-23T02:52:07.244Z,10.5
2022-10-23T02:53:19.463Z,10.4
2022-10-23T02:54:29.040Z,10.5
2022-10-23T02:55:43.730Z,10.4
2022-10-23T02:56:58.630Z,10.5
2022-10-23T02:58:05.741Z,10.5
2022-10-23T02:59:15.441Z,10.5
2022-10-23T03:00:24.695Z,10.4
2022-10-23T03:01:29.128Z,10.5
2022-10-23T03:02:38.232Z,10.5
2022-10-23T03:03:47.453Z,10.6
2022-10-23T03:04:54.650Z,10.7
2022-10-23T03:05:58.782Z,10.6
2022-10-23T03:07:02.823Z,10.6
2022-10-23T03:08:06.934Z,10.7
2022-10-23T03:09:11.085Z,10.6
2022-10-23T03:10:15.165Z,10.6
2022-10-23T03:11:19.265Z,10.7
2022-10-23T03:12:23.377Z,10.7
2022-10-23T03:13:27.794Z,10.6
2022-10-23T03:14:32.329Z,10.7
2022-10-23T03:15:36.483Z,10.7
2022-10-23T03:16:40.482Z,10.8
2022-10-23T03:17:44.563Z,10.8
2022-10-23T03:18:48.778Z,10.8
2022-10-23T03:19:52.824Z,10.8
2022-10-23T03:20:56.878Z,10.8
2022-10-23T03:22:01.102Z,10.7
2022-10-23T03:23:05.642Z,10.7
2022-10-23T03:24:09.710Z,10.8
2022-10-23T03:25:13.778Z,10.8
2022-10-23T03:26:17.953Z,10.8
2022-10-23T03:27:22.029Z,10.7
2022-10-23T03:28:26.367Z,10.9
2022-10-23T03:29:30.478Z,10.8
2022-10-23T03:30:34.526Z,10.9
2022-10-23T03:31:38.766Z,10.8
2022-10-23T03:32:43.454Z,10.9
2022-10-23T03:33:47.362Z,10.8
2022-10-23T03:34:51.634Z,10.8
2022-10-23T03:35:56.135Z,10.9
2022-10-23T03:37:00.218Z,10.8
2022-10-23T03:38:04.362Z,10.9
2022-10-23T03:39:08.503Z,10.9
2022-10-23T03:40:12.969Z,11
2022-10-23T03:41:17.066Z,10.8
2022-10-23T03:42:21.225Z,10.8
2022-10-23T03:43:25.374Z,10.9
2022-10-23T03:44:29.798Z,10.9
2022-10-23T03:45:34.274Z,10.9
2022-10-23T03:46:38.382Z,10.9
2022-10-23T03:47:42.806Z,11
2022-10-23T03:48:47.058Z,11
2022-10-23T03:49:51.245Z,10.9
2022-10-23T03:50:55.278Z,10.8
2022-10-23T03:51:59.405Z,10.9
2022-10-23T03:53:03.555Z,10.9
2022-10-23T03:54:07.609Z,10.9
2022-10-23T03:55:11.664Z,10.9
2022-10-23T03:56:15.899Z,10.8
2022-10-23T03:57:20.081Z,10.8
2022-10-23T03:58:24.545Z,10.9
2022-10-23T03:59:29.021Z,10.8
2022-10-23T04:00:33.672Z,10.9
2022-10-23T04:01:37.743Z,10.9
2022-10-23T04:02:42.273Z,10.9
2022-10-23T04:03:46.454Z,10.9
2022-10-23T04:04:51.137Z,10.8
2022-10-23T04:05:55.638Z,10.9
2022-10-23T04:06:59.745Z,10.7
2022-10-23T04:08:03.789Z,10.8
2022-10-23T04:09:07.937Z,10.8
2022-10-23T04:10:12.018Z,10.8
2022-10-23T04:11:16.181Z,10.8
2022-10-23T04:12:20.289Z,10.8
2022-10-23T04:13:24.365Z,10.8
2022-10-23T04:14:28.722Z,10.7
2022-10-23T04:15:32.905Z,10.7
2022-10-23T04:16:36.921Z,10.7
2022-10-23T04:17:41.031Z,10.8
2022-10-23T04:18:45.123Z,10.8
2022-10-23T04:19:49.338Z,10.8
2022-10-23T04:20:53.451Z,10.7
2022-10-23T04:21:57.477Z,10.7
2022-10-23T04:23:01.678Z,10.7
2022-10-23T04:24:06.098Z,10.7
2022-10-23T04:25:10.273Z,10.7
2022-10-23T04:26:14.427Z,10.6
2022-10-23T04:27:18.443Z,10.6
2022-10-23T04:28:22.541Z,10.6
2022-10-23T04:29:26.913Z,10.6
2022-10-23T04:30:31.014Z,10.8
2022-10-23T04:31:35.131Z,10.8
2022-10-23T04:32:39.217Z,10.6
2022-10-23T04:33:43.338Z,10.7
2022-10-23T04:34:47.390Z,10.7
2022-10-23T04:35:51.686Z,10.7
2022-10-23T04:36:56.301Z,10.8
2022-10-23T04:38:00.894Z,10.9
2022-10-23T04:39:05.354Z,10.8
2022-10-23T04:40:09.414Z,10.7
2022-10-23T04:41:13.565Z,10.5
2022-10-23T04:42:17.747Z,10.6
2022-10-23T04:43:21.802Z,10.7
2022-10-23T04:44:26.318Z,10.7
2022-10-23T04:45:30.714Z,10.6
2022-10-23T04:46:34.843Z,10.6
2022-10-23T04:47:39.390Z,10.6
2022-10-23T04:48:43.939Z,10.6
2022-10-23T04:49:48.035Z,10.6
2022-10-23T04:50:52.137Z,10.6
2022-10-23T04:51:56.234Z,10.7
2022-10-23T04:53:00.387Z,10.8
2022-10-23T04:54:04.523Z,10.7
2022-10-23T04:55:09.059Z,10.7
2022-10-23T04:56:13.139Z,10.7
2022-10-23T04:57:17.394Z,10.6
2022-10-23T04:58:21.795Z,10.7
2022-10-23T04:59:25.952Z,10.6
2022-10-23T05:00:30.359Z,10.6
2022-10-23T05:01:34.450Z,10.7
2022-10-23T05:02:38.472Z,10.6
2022-10-23T05:03:42.519Z,10.6
2022-10-23T05:04:46.643Z,10.6
2022-10-23T05:05:50.801Z,10.6
2022-10-23T05:06:54.836Z,10.5
2022-10-23T05:07:58.935Z,10.6
2022-10-23T05:09:03.091Z,10.5
2022-10-23T05:10:07.148Z,10.6
2022-10-23T05:11:11.363Z,10.6
2022-10-23T05:12:15.456Z,10.5
2022-10-23T05:13:19.575Z,10.6
2022-10-23T05:14:23.656Z,10.6
2022-10-23T05:15:27.967Z,10.7
2022-10-23T05:16:32.015Z,10.7
2022-10-23T05:17:41.548Z,10.6
2022-10-23T05:18:45.340Z,10.6
2022-10-23T05:19:49.436Z,10.6
2022-10-23T05:20:56.643Z,10.8
2022-10-23T05:22:06.232Z,10.8
2022-10-23T05:23:10.467Z,10.7
2022-10-23T05:24:14.481Z,10.7
2022-10-23T05:25:18.656Z,10.8
2022-10-23T05:26:22.779Z,10.6
2022-10-23T05:27:26.803Z,10.6
2022-10-23T05:28:31.199Z,10.6
2022-10-23T05:29:35.307Z,10.7
2022-10-23T05:30:39.331Z,10.9
2022-10-23T05:31:43.519Z,10.9
2022-10-23T05:32:47.671Z,11
2022-10-23T05:33:52.288Z,11
2022-10-23T05:34:56.868Z,11.1
2022-10-23T05:36:01.016Z,10.9
2022-10-23T05:37:05.541Z,11
2022-10-23T05:38:09.620Z,11
2022-10-23T05:39:13.627Z,10.9
2022-10-23T05:40:17.773Z,10.9
2022-10-23T05:41:21.844Z,11
2022-10-23T05:42:25.869Z,11
2022-10-23T05:43:30.347Z,10.9
2022-10-23T05:44:34.512Z,10.9
2022-10-23T05:45:39.183Z,11
2022-10-23T05:46:43.663Z,11.1
2022-10-23T05:47:47.872Z,11.3
2022-10-23T05:48:51.942Z,11.3
2022-10-23T05:49:56.031Z,11.2
2022-10-23T05:51:00.538Z,11.2
2022-10-23T05:52:07.687Z,11.2
2022-10-23T05:53:11.687Z,11.2
2022-10-23T05:54:15.876Z,11.2
2022-10-23T05:55:20.149Z,11.2
2022-10-23T05:56:24.135Z,11.2
2022-10-23T05:57:28.504Z,11.2
2022-10-23T05:58:32.677Z,11.1
2022-10-23T05:59:37.159Z,10.9
2022-10-23T06:00:41.301Z,10.8
2022-10-23T06:01:45.630Z,10.9
2022-10-23T06:02:49.491Z,11
2022-10-23T06:03:53.563Z,11
2022-10-23T06:04:57.739Z,10.9
2022-10-23T06:06:01.850Z,11.1
2022-10-23T06:07:06.331Z,11
2022-10-23T06:08:10.521Z,11.1
2022-10-23T06:09:15.051Z,11.1
2022-10-23T06:10:19.167Z,10.9
2022-10-23T06:11:23.484Z,11
2022-10-23T06:12:27.652Z,11.1
2022-10-23T06:13:31.787Z,11
2022-10-23T06:14:35.840Z,10.8
2022-10-23T06:15:39.953Z,10.9
2022-10-23T06:16:44.087Z,10.9
2022-10-23T06:17:48.649Z,10.9
2022-10-23T06:18:52.759Z,11
2022-10-23T06:19:56.968Z,11.1
2022-10-23T06:21:01.091Z,11
2022-10-23T06:22:05.176Z,11.1
2022-10-23T06:23:09.317Z,11
2022-10-23T06:24:13.406Z,11
2022-10-23T06:25:17.467Z,11
2022-10-23T06:26:21.599Z,11.1
2022-10-23T06:27:26.349Z,11.1
2022-10-23T06:28:30.515Z,11.2
2022-10-23T06:29:34.617Z,11
2022-10-23T06:31:43.333Z,11.2
2022-10-23T06:32:47.479Z,11.1
2022-10-23T06:33:51.555Z,11.2
2022-10-23T06:34:55.711Z,11.1
2022-10-23T06:35:59.805Z,11.1
2022-10-23T06:37:04.451Z,10.9
2022-10-23T06:38:08.612Z,10.9
2022-10-23T06:39:13.072Z,10.8
2022-10-23T06:40:17.295Z,10.8
2022-10-23T06:41:21.396Z,10.6
2022-10-23T06:42:25.996Z,10.9
2022-10-23T06:43:30.436Z,10.8
2022-10-23T06:44:35.011Z,10.9
2022-10-23T06:45:39.024Z,10.9
2022-10-23T06:46:43.083Z,11
2022-10-23T06:47:50.199Z,10.9
2022-10-23T06:48:54.379Z,10.8
2022-10-23T06:49:58.447Z,10.9
2022-10-23T06:51:02.580Z,10.8
2022-10-23T06:52:10.955Z,10.8
2022-10-23T06:53:11.302Z,10.7
2022-10-23T06:54:15.379Z,10.8
2022-10-23T06:55:19.547Z,10.8
2022-10-23T06:56:24.180Z,10.8
2022-10-23T06:57:28.215Z,10.9
2022-10-23T06:58:32.771Z,10.9
2022-10-23T06:59:37.244Z,10.9
2022-10-23T07:00:41.349Z,11
2022-10-23T07:01:45.721Z,11
2022-10-23T07:02:49.632Z,11
2022-10-23T07:03:53.703Z,11
2022-10-23T07:04:57.878Z,10.9
2022-10-23T07:06:02.431Z,11
2022-10-23T07:07:07.140Z,11.1
2022-10-23T07:08:11.775Z,11.2
2022-10-23T07:09:16.399Z,11.3
2022-10-23T07:10:21.003Z,11.5
2022-10-23T07:11:25.563Z,11.4
2022-10-23T07:12:29.935Z,11.3
2022-10-23T07:13:34.203Z,11.2
2022-10-23T07:14:38.603Z,11.3
2022-10-23T07:15:42.715Z,11.3
2022-10-23T07:16:46.771Z,11.4
2022-10-23T07:17:50.967Z,11.4
2022-10-23T07:18:55.044Z,11.3
2022-10-23T07:20:01.724Z,11.2
2022-10-23T07:21:06.316Z,11.1
2022-10-23T07:22:11.923Z,11.1
2022-10-23T07:23:14.468Z,11.1
2022-10-23T07:24:18.683Z,11.2
2022-10-23T07:25:22.867Z,11.2
2022-10-23T07:26:26.875Z,11.4
2022-10-23T07:27:31.159Z,11.5
2022-10-23T07:28:38.410Z,11.2
2022-10-23T07:29:42.512Z,11.3
2022-10-23T07:30:46.696Z,11.4
2022-10-23T07:31:56.389Z,11.3
2022-10-23T07:33:00.422Z,11.4
2022-10-23T07:34:04.523Z,11.3
2022-10-23T07:35:08.802Z,11.4
2022-10-23T07:36:12.800Z,11.3
2022-10-23T07:37:16.859Z,11.2
2022-10-23T07:38:21.050Z,11.2
2022-10-23T07:39:25.111Z,11.2
2022-10-23T07:40:29.240Z,11.4
2022-10-23T07:41:33.455Z,11.4
2022-10-23T07:42:37.602Z,11.3
2022-10-23T07:43:41.715Z,11.4
2022-10-23T07:44:45.826Z,11.4
2022-10-23T07:45:49.964Z,11.3
2022-10-23T07:46:54.002Z,11.4
2022-10-23T07:47:58.146Z,11.4
2022-10-23T07:49:02.256Z,11.4
2022-10-23T07:50:06.307Z,11.5
2022-10-23T07:51:10.464Z,11.5
2022-10-23T07:52:14.616Z,11.4
2022-10-23T07:53:19.081Z,11.5
2022-10-23T07:54:23.259Z,11.5
2022-10-23T07:55:27.331Z,11.5
2022-10-23T07:56:31.787Z,11.8
2022-10-23T07:57:36.042Z,11.9
2022-10-23T07:58:40.444Z,11.9
2022-10-23T07:59:44.635Z,11.9
2022-10-23T08:00:48.722Z,11.8
2022-10-23T08:02:01.073Z,11.7
2022-10-23T08:03:05.223Z,11.9
2022-10-23T08:04:09.219Z,11.7
2022-10-23T08:05:13.319Z,11.8
2022-10-23T08:06:17.499Z,11.8
2022-10-23T08:07:21.578Z,11.9
2022-10-23T08:08:25.670Z,11.9
2022-10-23T08:09:29.811Z,11.9
2022-10-23T08:10:34.166Z,12
2022-10-23T08:11:38.286Z,11.9
2022-10-23T08:12:42.654Z,11.9
2022-10-23T08:13:46.487Z,11.8
2022-10-23T08:14:50.707Z,11.9
2022-10-23T08:15:54.886Z,11.9
2022-10-23T08:16:59.489Z,11.9
2022-10-23T08:18:03.624Z,11.9
2022-10-23T08:19:08.079Z,11.9
2022-10-23T08:20:12.135Z,11.8
2022-10-23T08:21:16.261Z,11.9
2022-10-23T08:22:20.390Z,11.9
2022-10-23T08:23:24.587Z,11.8
2022-10-23T08:24:28.763Z,11.9
2022-10-23T08:26:37.179Z,11.9
2022-10-23T08:27:41.508Z,11.9
2022-10-23T08:28:45.378Z,11.9
2022-10-23T08:29:49.483Z,11.8
2022-10-23T08:30:53.646Z,11.9
2022-10-23T08:31:57.784Z,11.9
2022-10-23T08:33:01.856Z,11.9
2022-10-23T08:34:06.036Z,12
2022-10-23T08:35:10.187Z,12
2022-10-23T08:36:14.607Z,11.9
2022-10-23T08:37:21.416Z,12
2022-10-23T08:38:25.424Z,12.2
2022-10-23T08:39:29.722Z,12.1
2022-10-23T08:40:33.983Z,12.1
2022-10-23T08:41:38.240Z,12.1
2022-10-23T08:42:43.019Z,12.1
2022-10-23T08:43:47.064Z,12.1
2022-10-23T08:44:54.139Z,12
2022-10-23T08:46:08.514Z,12.1
2022-10-23T08:47:10.518Z,12.2
2022-10-23T08:48:25.280Z,12.2
2022-10-23T08:49:32.164Z,12.3
2022-10-23T08:50:44.531Z,12.4
2022-10-23T08:51:49.086Z,12.5
2022-10-23T08:52:53.218Z,12.2
2022-10-23T08:54:02.915Z,12.3
2022-10-23T08:55:07.040Z,12.4
2022-10-23T08:56:16.399Z,12.5
2022-10-23T08:57:23.507Z,12.6
2022-10-23T08:58:27.495Z,12.5
2022-10-23T08:59:35.033Z,12.5
2022-10-23T09:00:39.160Z,12.5
2022-10-23T09:01:43.508Z,12.5
2022-10-23T09:02:47.886Z,12.5
2022-10-23T09:03:51.979Z,12.6
2022-10-23T09:04:56.236Z,12.6
2022-10-23T09:06:00.197Z,12.6
2022-10-23T09:08:22.002Z,12.4
2022-10-23T09:09:26.226Z,12.5
2022-10-23T09:10:33.239Z,12.5
2022-10-23T09:11:42.523Z,12.6
2022-10-23T09:12:49.766Z,12.7
2022-10-23T09:13:53.838Z,12.7
2022-10-23T09:15:00.971Z,12.7
2022-10-23T09:16:07.708Z,12.7
2022-10-23T09:17:16.865Z,12.7
2022-10-23T09:18:23.559Z,12.6
2022-10-23T09:19:27.679Z,12.4
2022-10-23T09:20:31.801Z,12.6
2022-10-23T09:21:36.154Z,12.6
2022-10-23T09:22:40.286Z,12.7
2022-10-23T09:23:44.470Z,12.7
2022-10-23T09:24:52.869Z,12.8
2022-10-23T09:25:52.570Z,12.8
2022-10-23T09:26:56.747Z,12.7
2022-10-23T09:28:04.432Z,12.8
2022-10-23T09:29:05.518Z,12.9
2022-10-23T09:30:09.614Z,12.9
2022-10-23T09:31:14.142Z,12.9
2022-10-23T09:32:18.323Z,12.9
2022-10-23T09:33:32.874Z,12.8
2022-10-23T09:34:36.943Z,12.8
2022-10-23T09:35:41.323Z,12.8
2022-10-23T09:38:00.037Z,12.8
2022-10-23T09:39:04.230Z,12.9
2022-10-23T09:40:08.213Z,12.9
2022-10-23T09:41:17.462Z,13
2022-10-23T09:42:26.656Z,12.9
2022-10-23T09:43:30.783Z,12.8
2022-10-23T09:44:35.126Z,12.9
2022-10-23T09:45:39.176Z,12.9
2022-10-23T09:46:43.373Z,12.9
2022-10-23T09:47:47.586Z,13
2022-10-23T09:48:52.050Z,13
2022-10-23T09:49:59.315Z,12.9
2022-10-23T09:51:03.454Z,13
2022-10-23T09:52:16.174Z,13
2022-10-23T09:53:23.313Z,13
2022-10-23T09:54:27.394Z,13
2022-10-23T09:55:31.562Z,13
2022-10-23T09:56:36.034Z,13.1
2022-10-23T09:57:40.424Z,13.1
2022-10-23T09:58:44.167Z,13.1
2022-10-23T09:59:53.430Z,13.1
2022-10-23T10:00:57.605Z,13.2
2022-10-23T10:02:01.855Z,13.3
2022-10-23T10:03:06.218Z,13.4
2022-10-23T10:04:10.354Z,13.3
2022-10-23T10:05:14.466Z,13.4
2022-10-23T10:06:29.118Z,13.6
2022-10-23T10:07:34.663Z,13.6
2022-10-23T10:08:37.274Z,13.6
2022-10-23T10:09:41.667Z,13.6
2022-10-23T10:10:46.090Z,13.5
2022-10-23T10:11:55.356Z,13.5
2022-10-23T10:13:09.211Z,13.8
2022-10-23T10:14:19.918Z,13.8
2022-10-23T10:15:32.422Z,13.8
2022-10-23T10:16:44.968Z,13.8
2022-10-23T10:17:59.546Z,13.8
2022-10-23T10:19:13.979Z,14
2022-10-23T10:20:21.310Z,14.1
2022-10-23T10:21:33.458Z,14.3
2022-10-23T10:22:45.882Z,14.5
2022-10-23T10:24:00.538Z,14.6
2022-10-23T10:25:13.017Z,14.5
2022-10-23T10:26:27.644Z,14.6
2022-10-23T10:27:42.693Z,14.6
2022-10-23T10:28:57.429Z,14.6
2022-10-23T10:30:12.142Z,14.8
2022-10-23T10:31:16.270Z,14.9
2022-10-23T10:32:25.530Z,15
2022-10-23T10:33:40.070Z,15.1
2022-10-23T10:34:49.730Z,15.1
2022-10-23T10:35:59.098Z,15.2
2022-10-23T10:37:03.122Z,15.3
2022-10-23T10:38:15.571Z,15.4
2022-10-23T10:39:22.538Z,15.5
2022-10-23T10:40:37.131Z,15.5
2022-10-23T10:41:49.526Z,15.6
2022-10-23T10:42:53.562Z,15.7
2022-10-23T10:44:07.982Z,15.5
2022-10-23T10:45:17.724Z,15.5
2022-10-23T10:46:30.427Z,15.6
2022-10-23T10:47:43.210Z,15.5
2022-10-23T10:48:52.235Z,15.7
2022-10-23T10:50:02.086Z,15.5
2022-10-23T10:51:16.851Z,15.8
2022-10-23T10:52:31.561Z,15.8
2022-10-23T10:53:38.620Z,15.8
2022-10-23T10:54:53.470Z,15.7
2022-10-23T10:56:03.144Z,15.7
2022-10-23T10:57:07.246Z,15.7
2022-10-23T10:58:14.441Z,15.8
2022-10-23T10:59:24.134Z,15.7
2022-10-23T11:00:31.361Z,15.7
2022-10-23T11:01:35.773Z,15.6
2022-10-23T11:02:47.951Z,15.6
2022-10-23T11:03:52.058Z,15.8
2022-10-23T11:05:04.489Z,15.8
2022-10-23T11:06:19.274Z,15.8
2022-10-23T11:07:23.406Z,15.6
2022-10-23T11:08:27.863Z,15.9
2022-10-23T11:09:37.440Z,15.9
2022-10-23T11:10:41.630Z,15.7
2022-10-23T11:11:45.794Z,15.6
2022-10-23T11:12:50.399Z,15.6
2022-10-23T11:13:54.366Z,15.7
2022-10-23T11:14:58.513Z,16
2022-10-23T11:16:02.566Z,16.1
2022-10-23T11:17:11.775Z,16.1
2022-10-23T11:18:26.105Z,16.3
2022-10-23T11:19:30.254Z,16.4
2022-10-23T11:20:37.650Z,16.3
2022-10-23T11:21:50.199Z,16.6
2022-10-23T11:22:59.746Z,16.6
2022-10-23T11:25:18.782Z,16.8
2022-10-23T11:26:33.525Z,16.9
2022-10-23T11:27:44.353Z,16.9
2022-10-23T11:28:53.878Z,16.8
2022-10-23T11:30:03.485Z,17
2022-10-23T11:31:17.893Z,17
2022-10-23T11:33:43.938Z,17.2
2022-10-23T11:34:51.890Z,17
2022-10-23T11:36:04.075Z,17.4
2022-10-23T11:37:16.590Z,17.4
2022-10-23T11:38:20.547Z,17.2
2022-10-23T11:39:27.358Z,17.2
2022-10-23T11:40:32.086Z,17.2
2022-10-23T11:41:36.174Z,17.2
2022-10-23T11:42:40.523Z,17.2
2022-10-23T11:43:44.370Z,17.2
2022-10-23T11:44:56.182Z,17.1
2022-10-23T11:46:00.222Z,16.9
2022-10-23T11:47:14.699Z,17.1
2022-10-23T11:48:29.486Z,17.2
2022-10-23T11:49:36.889Z,17.1
2022-10-23T11:50:41.050Z,17
2022-10-23T11:51:45.097Z,16.7
2022-10-23T11:52:50.542Z,16.7
2022-10-23T11:53:53.342Z,16.8
2022-10-23T11:55:05.750Z,16.7
2022-10-23T11:56:18.038Z,16.7
2022-10-23T11:57:25.176Z,16.8
2022-10-23T11:58:29.250Z,16.9
2022-10-23T11:59:43.821Z,16.8
2022-10-23T12:00:47.959Z,16.8
2022-10-23T12:02:00.333Z,16.9
2022-10-23T12:03:04.408Z,16.9
2022-10-23T12:04:08.489Z,17.1
2022-10-23T12:05:15.858Z,16.9
2022-10-23T12:06:28.418Z,16.8
2022-10-23T12:07:32.699Z,16.9
2022-10-23T12:08:36.866Z,17
2022-10-23T12:09:41.039Z,16.9
2022-10-23T12:10:45.380Z,16.8
2022-10-23T12:11:49.823Z,16.9
2022-10-23T12:13:02.494Z,17
2022-10-23T12:14:06.739Z,17
2022-10-23T12:15:21.525Z,17
2022-10-23T12:16:25.626Z,17.2
2022-10-23T12:17:34.870Z,17.3
2022-10-23T12:18:39.198Z,17
2022-10-23T12:19:48.484Z,17
2022-10-23T12:20:52.541Z,17.1
2022-10-23T12:22:01.786Z,17.3
2022-10-23T12:23:05.907Z,17.3
2022-10-23T12:24:16.238Z,17.2
2022-10-23T12:25:25.492Z,17
2022-10-23T12:26:35.719Z,17
2022-10-23T12:27:43.475Z,16.9
2022-10-23T12:28:55.457Z,16.8
2022-10-23T12:30:00.120Z,16.8
2022-10-23T12:31:14.798Z,16.8
2022-10-23T12:32:27.066Z,16.7
2022-10-23T12:33:36.358Z,16.8
2022-10-23T12:34:43.341Z,16.8
2022-10-23T12:35:53.039Z,16.7
2022-10-23T12:37:02.305Z,16.7
2022-10-23T12:38:17.086Z,16.8
2022-10-23T12:39:26.349Z,16.7
2022-10-23T12:40:30.778Z,16.9
2022-10-23T12:41:35.147Z,16.7
2022-10-23T12:42:39.338Z,16.6
2022-10-23T12:43:43.353Z,16.7
2022-10-23T12:44:55.738Z,16.9
2022-10-23T12:46:02.829Z,16.7
2022-10-23T12:47:15.075Z,16.9
2022-10-23T12:48:19.230Z,16.9
2022-10-23T12:49:23.337Z,16.9
2022-10-23T12:50:27.486Z,17
2022-10-23T12:51:32.034Z,17
2022-10-23T12:52:36.111Z,16.9
2022-10-23T12:53:40.642Z,17.1
2022-10-23T12:54:44.770Z,17.2
2022-10-23T12:55:48.862Z,17.3
2022-10-23T12:56:58.533Z,17
2022-10-23T12:58:02.747Z,17
2022-10-23T12:59:06.786Z,16.8
2022-10-23T13:00:10.853Z,16.7
2022-10-23T13:01:15.566Z,16.8
2022-10-23T13:02:25.517Z,16.6
2022-10-23T13:03:29.837Z,16.6
2022-10-23T13:04:33.929Z,16.6
2022-10-23T13:05:38.274Z,16.7
2022-10-23T13:06:42.475Z,16.8
2022-10-23T13:07:46.790Z,16.8
2022-10-23T13:08:51.178Z,16.8
2022-10-23T13:09:55.321Z,16.8
2022-10-23T13:10:59.389Z,16.6
2022-10-23T13:12:03.503Z,16.6
2022-10-23T13:13:08.278Z,16.7
2022-10-23T13:14:12.330Z,16.9
2022-10-23T13:15:16.410Z,16.8
2022-10-23T13:16:20.998Z,16.8
2022-10-23T13:17:25.170Z,17
2022-10-23T13:18:34.426Z,16.8
2022-10-23T13:19:38.665Z,16.9
2022-10-23T13:20:42.803Z,16.6
2022-10-23T13:21:52.069Z,16.7
2022-10-23T13:22:57.656Z,16.7
2022-10-23T13:24:00.421Z,16.6
2022-10-23T13:25:05.098Z,16.6
2022-10-23T13:26:19.754Z,16.7
2022-10-23T13:27:29.025Z,16.8
2022-10-23T13:28:33.164Z,16.9
2022-10-23T13:29:43.074Z,16.8
2022-10-23T13:30:47.143Z,16.8
2022-10-23T13:32:02.005Z,16.7
2022-10-23T13:33:11.262Z,16.8
2022-10-23T13:34:23.576Z,16.8
2022-10-23T13:35:30.714Z,16.9
2022-10-23T13:36:34.738Z,17
2022-10-23T13:37:39.219Z,17.1
2022-10-23T13:38:43.386Z,17
2022-10-23T13:39:47.897Z,17
2022-10-23T13:41:00.274Z,16.9
2022-10-23T13:42:07.001Z,16.9
2022-10-23T13:43:13.993Z,16.8
2022-10-23T13:44:18.278Z,16.9
2022-10-23T13:45:22.334Z,16.9
2022-10-23T13:46:26.458Z,17
2022-10-23T13:47:30.958Z,17.1
2022-10-23T13:48:35.193Z,17.1
2022-10-23T13:49:39.501Z,17
2022-10-23T13:50:43.631Z,16.8
2022-10-23T13:51:47.724Z,16.9
2022-10-23T13:52:51.845Z,16.8
2022-10-23T13:53:56.029Z,16.8
2022-10-23T13:55:00.178Z,16.7
2022-10-23T13:56:04.782Z,16.7
2022-10-23T13:57:08.874Z,16.6
2022-10-23T13:58:13.457Z,16.5
2022-10-23T13:59:17.661Z,16.6
2022-10-23T14:00:21.754Z,16.7
2022-10-23T14:01:26.035Z,16.7
2022-10-23T14:02:30.151Z,16.5
2022-10-23T14:03:34.121Z,16.6
2022-10-23T14:04:38.155Z,16.6
2022-10-23T14:05:42.477Z,16.4
2022-10-23T14:06:46.638Z,16.4
2022-10-23T14:07:50.787Z,16.3
2022-10-23T14:08:54.845Z,16.4
2022-10-23T14:09:58.913Z,16.3
2022-10-23T14:11:03.184Z,16.3
2022-10-23T14:12:07.279Z,16.2
2022-10-23T14:13:11.354Z,16.2
2022-10-23T14:14:15.485Z,16.3
2022-10-23T14:15:19.534Z,16.1
2022-10-23T14:16:23.670Z,16.2
2022-10-23T14:17:27.885Z,16.2
2022-10-23T14:18:31.885Z,16.2
2022-10-23T14:20:40.321Z,16.1
2022-10-23T14:21:44.438Z,16.1
2022-10-23T14:22:49.141Z,16.1
2022-10-23T14:23:53.201Z,16
2022-10-23T14:24:57.305Z,15.9
2022-10-23T14:26:01.490Z,15.8
2022-10-23T14:27:05.569Z,16
2022-10-23T14:28:09.729Z,16.1
2022-10-23T14:29:20.015Z,16
2022-10-23T14:30:18.013Z,16.1
2022-10-23T14:31:22.482Z,16
2022-10-23T14:32:26.662Z,16
2022-10-23T14:33:30.769Z,16
2022-10-23T14:34:34.785Z,16
2022-10-23T14:35:38.873Z,16
2022-10-23T14:36:50.640Z,15.9
2022-10-23T14:37:48.073Z,16
2022-10-23T14:38:55.595Z,16
2022-10-23T14:39:56.730Z,16
2022-10-23T14:41:00.917Z,15.9
2022-10-23T14:42:04.999Z,16
2022-10-23T14:43:09.017Z,15.9
2022-10-23T14:44:13.225Z,15.9
2022-10-23T14:45:17.662Z,15.9
2022-10-23T14:46:21.853Z,15.8
2022-10-23T14:47:26.058Z,15.9
2022-10-23T14:48:30.389Z,16